createdAt,value
2022-08-30T00:01:56.604Z,8.77
2022-08-30T00:07:04.050Z,8.40
2022-08-30T00:12:11.063Z,10.10
2022-08-30T00:17:15.636Z,10.45
2022-08-30T00:22:21.401Z,9.65
2022-08-30T00:27:25.727Z,10.25
2022-08-30T00:32:31.285Z,9.68
2022-08-30T00:37:37.511Z,10.10
2022-08-30T00:42:41.995Z,10.73
2022-08-30T00:47:46.852Z,10.77
2022-08-30T00:52:55.950Z,9.85
2022-08-30T00:58:05.117Z,11.20
2022-08-30T01:03:10.202Z,9.85
2022-08-30T01:08:16.934Z,9.15
2022-08-30T01:13:23.402Z,8.63
2022-08-30T01:18:28.297Z,9.48
2022-08-30T01:23:36.646Z,9.43
2022-08-30T01:28:44.902Z,8.63
2022-08-30T01:33:49.417Z,9.02
2022-08-30T01:38:57.501Z,8.23
2022-08-30T01:44:05.532Z,9.18
2022-08-30T01:49:13.191Z,8.30
2022-08-30T01:54:19.513Z,9.30
2022-08-30T01:59:24.335Z,9.32
2022-08-30T02:04:29.340Z,10.63
2022-08-30T02:09:35.235Z,10.88
2022-08-30T02:14:40.692Z,10.40
2022-08-30T02:19:45.340Z,11.90
2022-08-30T02:24:51.080Z,11.90
2022-08-30T02:29:55.658Z,12.80
2022-08-30T02:35:00.392Z,11.40
2022-08-30T02:40:08.633Z,11.77
2022-08-30T02:45:13.637Z,11.82
2022-08-30T02:50:19.887Z,11.88
2022-08-30T02:55:26.218Z,12.88
2022-08-30T03:00:31.045Z,13.02
2022-08-30T03:05:39.609Z,13.15
2022-08-30T03:10:46.433Z,11.70
2022-08-30T03:15:50.852Z,11.82
2022-08-30T03:20:55.361Z,11.57
2022-08-30T03:26:01.491Z,14.13
2022-08-30T03:31:07.129Z,13.00
2022-08-30T03:36:13.061Z,14.23
2022-08-30T03:41:19.897Z,12.95
2022-08-30T03:46:24.726Z,15.30
2022-08-30T03:51:34.875Z,13.70
2022-08-30T03:56:42.019Z,14.90
2022-08-30T04:01:48.485Z,13.20
2022-08-30T04:06:53.987Z,15.30
2022-08-30T04:12:00.700Z,13.02
2022-08-30T04:17:05.850Z,12.48
2022-08-30T04:22:10.422Z,10.93
2022-08-30T04:27:20.463Z,11.70
2022-08-30T04:32:25.315Z,11.35
2022-08-30T04:37:30.118Z,10.27
2022-08-30T04:42:37.358Z,11.60
2022-08-30T04:47:42.327Z,12.15
2022-08-30T04:52:47.954Z,11.48
2022-08-30T04:57:54.956Z,12.73
2022-08-30T05:02:59.209Z,10.73
2022-08-30T05:08:04.219Z,11.77
2022-08-30T05:13:11.613Z,13.60
2022-08-30T05:18:16.657Z,12.32
2022-08-30T05:23:20.985Z,11.98
2022-08-30T05:28:27.015Z,13.10
2022-08-30T05:33:32.151Z,12.82
2022-08-30T05:38:44.908Z,13.27
2022-08-30T05:43:53.943Z,12.32
2022-08-30T05:48:58.755Z,10.30
2022-08-30T05:54:04.002Z,10.60
2022-08-30T05:59:10.619Z,9.88
2022-08-30T06:04:15.540Z,9.45
2022-08-30T06:09:19.959Z,10.55
2022-08-30T06:14:25.916Z,10.13
2022-08-30T06:19:30.783Z,11.30
2022-08-30T06:24:56.494Z,9.93
2022-08-30T06:30:03.424Z,10.70
2022-08-30T06:35:10.443Z,11.10
2022-08-30T06:40:18.498Z,8.65
2022-08-30T06:45:24.843Z,9.23
2022-08-30T06:50:30.238Z,9.68
2022-08-30T06:55:35.140Z,7.57
2022-08-30T07:00:42.110Z,7.65
2022-08-30T07:05:46.991Z,9.60
2022-08-30T07:10:52.241Z,14.52
2022-08-30T07:15:58.319Z,11.38
2022-08-30T07:21:10.046Z,11.13
2022-08-30T07:26:17.543Z,11.23
2022-08-30T07:31:23.870Z,10.63
2022-08-30T07:36:28.159Z,9.75
2022-08-30T07:41:36.853Z,9.25
2022-08-30T07:46:43.446Z,8.73
2022-08-30T07:51:49.152Z,9.10
2022-08-30T07:56:56.251Z,9.93
2022-08-30T08:02:02.373Z,9.35
2022-08-30T08:07:07.041Z,8.18
2022-08-30T08:12:11.941Z,7.53
2022-08-30T08:17:18.333Z,7.05
2022-08-30T08:22:22.632Z,5.57
2022-08-30T08:27:27.222Z,5.75
2022-08-30T08:32:33.091Z,8.98
2022-08-30T08:37:38.372Z,8.20
2022-08-30T08:42:55.751Z,6.07
2022-08-30T08:48:06.552Z,4.68
2022-08-30T08:53:45.402Z,4.07
2022-08-30T08:58:53.307Z,4.65
2022-08-30T09:04:03.152Z,7.72
2022-08-30T09:09:07.473Z,6.05
2022-08-30T09:14:17.891Z,5.65
2022-08-30T09:19:40.452Z,6.10
2022-08-30T09:24:47.384Z,7.72
2022-08-30T09:29:58.122Z,5.47
2022-08-30T09:35:06.826Z,4.50
2022-08-30T09:40:23.129Z,4.03
2022-08-30T09:45:34.749Z,5.57
2022-08-30T09:50:41.067Z,5.07
2022-08-30T09:56:01.003Z,5.18
2022-08-30T10:01:14.150Z,3.78
2022-08-30T10:06:34.224Z,5.55
2022-08-30T10:11:53.535Z,4.10
2022-08-30T10:17:10.190Z,3.60
2022-08-30T10:22:25.795Z,4.25
2022-08-30T10:27:36.164Z,3.80
2022-08-30T10:32:47.554Z,2.83
2022-08-30T10:37:58.207Z,3.08
2022-08-30T10:43:09.985Z,2.92
2022-08-30T10:48:22.491Z,2.25
2022-08-30T10:53:34.019Z,2.83
2022-08-30T10:58:40.932Z,2.88
2022-08-30T11:04:21.757Z,2.58
2022-08-30T11:09:53.380Z,3.20
2022-08-30T11:14:58.419Z,3.70
2022-08-30T11:20:22.489Z,2.17
2022-08-30T11:25:53.567Z,1.90
2022-08-30T11:31:09.858Z,1.90
2022-08-30T11:37:04.388Z,2.55
2022-08-30T11:42:30.080Z,1.50
2022-08-30T11:47:43.721Z,2.10
2022-08-30T11:53:00.952Z,2.53
2022-08-30T11:58:28.107Z,1.98
2022-08-30T12:03:35.460Z,2.30
2022-08-30T12:08:57.927Z,2.30
2022-08-30T12:14:09.418Z,2.53
2022-08-30T12:19:19.195Z,2.20
2022-08-30T12:24:28.189Z,2.00
2022-08-30T12:29:34.626Z,1.92
2022-08-30T12:34:53.211Z,1.85
2022-08-30T12:40:06.441Z,1.85
2022-08-30T12:45:16.055Z,2.10
2022-08-30T12:50:24.628Z,1.58
2022-08-30T12:55:31.946Z,1.38
2022-08-30T13:00:40.331Z,1.27
2022-08-30T13:05:52.737Z,1.40
2022-08-30T13:11:07.380Z,1.20
2022-08-30T13:16:29.260Z,1.80
2022-08-30T13:21:36.150Z,1.60
2022-08-30T13:26:41.460Z,1.70
2022-08-30T13:31:48.013Z,1.42
2022-08-30T13:36:57.667Z,1.60
2022-08-30T13:47:37.013Z,1.70
2022-08-30T13:52:42.515Z,1.50
2022-08-30T13:57:55.516Z,1.30
2022-08-30T14:03:03.206Z,1.42
2022-08-30T14:08:44.340Z,1.70
2022-08-30T14:13:34.315Z,1.67
2022-08-30T14:18:40.927Z,1.80
2022-08-30T14:23:45.285Z,2.17
2022-08-30T14:28:51.822Z,1.70
2022-08-30T14:33:58.875Z,1.70
2022-08-30T14:39:08.153Z,2.20
2022-08-30T14:44:14.270Z,1.33
2022-08-30T14:49:21.645Z,1.95
2022-08-30T14:54:30.275Z,1.65
2022-08-30T14:59:35.376Z,1.90
2022-08-30T15:04:42.066Z,1.80
2022-08-30T15:09:47.374Z,2.20
2022-08-30T15:14:51.835Z,2.00
2022-08-30T15:19:58.843Z,1.98
2022-08-30T15:25:05.515Z,2.20
2022-08-30T15:30:12.254Z,2.03
2022-08-30T15:35:22.827Z,2.38
2022-08-30T15:40:28.469Z,1.77
2022-08-30T15:45:33.185Z,2.08
2022-08-30T15:50:39.052Z,2.22
2022-08-30T15:55:45.083Z,2.30
2022-08-30T16:00:50.018Z,2.13
2022-08-30T16:05:57.916Z,2.67
2022-08-30T16:11:02.748Z,2.40
2022-08-30T16:16:09.374Z,2.70
2022-08-30T16:21:20.672Z,2.33
2022-08-30T16:26:25.970Z,2.50
2022-08-30T16:31:32.249Z,2.85
2022-08-30T16:36:39.910Z,2.88
2022-08-30T16:41:45.887Z,2.80
2022-08-30T16:46:53.142Z,4.10
2022-08-30T16:52:00.323Z,3.92
2022-08-30T16:57:04.992Z,3.53
2022-08-30T17:02:09.956Z,3.90
2022-08-30T17:07:20.985Z,3.50
2022-08-30T17:12:27.970Z,3.70
2022-08-30T17:17:32.357Z,3.35
2022-08-30T17:22:39.139Z,3.70
2022-08-30T17:27:44.679Z,4.45
2022-08-30T17:32:49.218Z,4.05
2022-08-30T17:37:55.950Z,5.13
2022-08-30T17:43:00.416Z,4.35
2022-08-30T17:48:07.370Z,4.72
2022-08-30T17:53:13.673Z,5.10
2022-08-30T17:58:18.573Z,5.25
2022-08-30T18:03:26.828Z,3.70
2022-08-30T18:08:33.690Z,4.85
2022-08-30T18:13:39.248Z,5.90
2022-08-30T18:18:44.670Z,5.43
2022-08-30T18:23:54.336Z,5.13
2022-08-30T18:29:01.595Z,4.85
2022-08-30T18:34:12.433Z,5.78
2022-08-30T18:39:19.429Z,5.15
2022-08-30T18:44:28.887Z,5.40
2022-08-30T18:49:36.478Z,5.63
2022-08-30T18:54:52.433Z,5.18
2022-08-30T18:59:57.866Z,5.05
2022-08-30T19:05:02.778Z,5.10
2022-08-30T19:10:12.354Z,5.40
2022-08-30T19:20:23.866Z,7.88
2022-08-30T19:25:30.887Z,7.45
2022-08-30T19:30:35.661Z,4.72
2022-08-30T19:35:39.947Z,5.25
2022-08-30T19:40:45.813Z,5.13
2022-08-30T19:45:56.306Z,4.80
2022-08-30T19:51:01.776Z,4.95
2022-08-30T19:56:07.931Z,5.78
2022-08-30T20:01:13.787Z,6.93
2022-08-30T20:06:37.976Z,5.65
2022-08-30T20:11:52.539Z,5.72
2022-08-30T20:17:02.318Z,5.72
2022-08-30T20:22:08.430Z,6.57
2022-08-30T20:27:15.425Z,6.68
2022-08-30T20:32:20.995Z,7.35
2022-08-30T20:37:27.942Z,8.40
2022-08-30T20:42:34.326Z,5.53
2022-08-30T20:47:40.434Z,6.25
2022-08-30T20:52:46.747Z,5.85
2022-08-30T20:57:52.715Z,5.88
2022-08-30T21:02:57.387Z,5.57
2022-08-30T21:08:06.885Z,5.95
2022-08-30T21:13:17.510Z,6.57
2022-08-30T21:18:22.027Z,5.75
2022-08-30T21:23:27.253Z,4.95
2022-08-30T21:28:33.468Z,5.32
2022-08-30T21:33:39.430Z,4.85
2022-08-30T21:38:44.039Z,5.88
2022-08-30T21:43:51.951Z,5.47
2022-08-30T21:49:02.130Z,6.07
2022-08-30T21:54:10.321Z,6.27
2022-08-30T21:59:16.788Z,7.43
2022-08-30T22:04:26.154Z,6.43
2022-08-30T22:09:31.631Z,5.60
2022-08-30T22:14:37.643Z,5.80
2022-08-30T22:19:42.530Z,4.80
2022-08-30T22:24:48.257Z,4.45
2022-08-30T22:29:54.348Z,4.50
2022-08-30T22:34:58.827Z,5.28
2022-08-30T22:40:03.505Z,5.63
2022-08-30T22:45:12.189Z,4.90
2022-08-30T22:50:16.623Z,4.90
2022-08-30T22:55:21.120Z,4.72
2022-08-30T23:00:29.498Z,5.10
2022-08-30T23:05:35.101Z,4.38
2022-08-30T23:10:39.441Z,5.05
2022-08-30T23:15:45.880Z,5.60
2022-08-30T23:20:50.455Z,5.63
2022-08-30T23:26:12.243Z,6.13
2022-08-30T23:31:36.590Z,6.18
2022-08-30T23:36:58.431Z,5.10
2022-08-30T23:42:20.094Z,6.45
2022-08-30T23:47:45.682Z,5.47
2022-08-30T23:53:07.797Z,7.00
2022-08-30T23:58:29.809Z,5.72
